You are not logged in, Click here to log in
ICAO: NZAA Country: 紐西蘭最大和最繁忙的國際機場坐落於奧克蘭市以南的馬努考市西部Mangere,距離奧克蘭市中心約21公
Latitude: -37.0081 Longitude: 174.792
Total Arrivals: 8 Total Departures: 7
Latest Arrival: NZ642 (NZQN-NZAA)Jason. Li Latest Departure: FS67 (NZAA-NTAA)Jason. Li
Scenery:
METAR : NZAA 231100Z AUTO 23010KT 9999 NCD 11/08 Q0995 NOSIG

奧克蘭機場AKL